TFFRSMJP

Guest
Details From TFFR - Pointe A Pitre Le Raizet
To SMJP - Paramaribo Johan A Pengel Intl
Flight Number -
Tags Generated
Created
Modified
Stats Distance 749 nm / 1,388 km
Max Altitude 0 ft / 0 m
Waypoints 4
Social Downloads 1
Likes 0
Share VATSIM

Download

Looking for another format? Having issues loading an existing format? Contact us
Advertisement - Login to hide

Notes

Generated

Route

TFFR BGI68 R1531 SMJP

ID Type Via Altitude Latitude Longitude Leg Dist Tot Dist Heading (true) Name
O TFFR APT - 0 ft / 0 m 16.26830˚ -61.54794˚ - 0 nm - -
BGI68 FIX - 0 ft / 0 m 13.03432˚ -59.63100˚ 223 nm 223 nm 150° / 150° -
R1531 FIX - 0 ft / 0 m 5.45274˚ -55.20349˚ 525 nm 749 nm 150° / 150° -
O SMJP APT - 0 ft / 0 m 5.45274˚ -55.20349˚ 0 nm 749 nm 0° / 180° -

Altitude Profile

Advertisement - Login to hide

Weather


0- 5 10 15 20 25 30 35+ Temperature / ° C

Clouds and Precipitation
Forecast for 2017-12-15 06:00 UTC. Updated 2 hours ago

Ground ~20,000 ft ~40,000 ft Winds

TFFR

Details ICAO TFFR (PTP)
Name Pointe a Pitre Le Raizet
Region France (Guadeloupe, Martinique, Saint Barthélemy, Saint Martin)
Timezone America/Guadeloupe (UTC-4.0)
Stats Elevation 35 ft / 11 m (AMSL)
Location 16.265306° -61.531808°
Runways 1
Magnetic Variation 14.857° W

METAR

TFFR 150700Z AUTO 00000KT CAVOK 22/21 Q1016 TEMPO 4000 SHRA SCT015TCU

Decode

TAF

Not found

Departure Runways

ID Width Length Bearing (true) Bearing (mag) Surface Threshold Offset Overrun Length
11 148 ft / 45 m 11,513 ft / 3,509 m 100.94° 115.80° Asphalt 0 ft / 0 m 0 ft / 0 m
29 148 ft / 45 m 11,513 ft / 3,509 m 280.95° 295.81° Asphalt 0 ft / 0 m 0 ft / 0 m

SMJP

Details ICAO SMJP (PBM)
Name Paramaribo Johan A Pengel Intl
Region Suriname
Timezone America/Paramaribo (UTC-3.0)
Stats Elevation 59 ft / 18 m (AMSL)
Location 5.452831° -55.187783°
Runways 1
Magnetic Variation 17.548° W

METAR

SMJP 150700Z VRB01KT CAVOK 23/22 Q1012 NOSIG

Decode

TAF

Not found

Destination Runways

ID Width Length Bearing (true) Bearing (mag) Surface Threshold Offset Overrun Length
11 148 ft / 45 m 11,415 ft / 3,479 m 89.66° 107.21° Concrete 0 ft / 0 m 164 ft / 50 m
29 148 ft / 45 m 11,415 ft / 3,479 m 269.67° 287.22° Concrete 0 ft / 0 m 197 ft / 60 m

Approach Navaids

Runway Type Ident Frequency Range Bearing (true) Bearing (mag) Slope Elevation
11 Localiser IZAN 109.90 MHz 18 nm / 33 km 89.67° 107.21° - 59 ft / 18 m (AMSL)
11 Glidescope IZAN 109.90 MHz 10 nm / 19 km 89.67° 107.21° 3.00° 56 ft / 17 m (AMSL)